sensor_id;sensor_type;location;lat;lon;timestamp;temperature;humidity
26595;DHT22;14238;49.496;8.154;2022-07-17T00:00:36;16.20;99.90
26595;DHT22;14238;49.496;8.154;2022-07-17T00:03:05;16.20;99.90
26595;DHT22;14238;49.496;8.154;2022-07-17T00:05:31;16.10;99.90
26595;DHT22;14238;49.496;8.154;2022-07-17T00:07:56;16.10;99.90
26595;DHT22;14238;49.496;8.154;2022-07-17T00:10:22;16.00;99.90
26595;DHT22;14238;49.496;8.154;2022-07-17T00:12:47;15.90;99.90
26595;DHT22;14238;49.496;8.154;2022-07-17T00:15:13;15.80;99.90
26595;DHT22;14238;49.496;8.154;2022-07-17T00:17:39;15.70;99.90
26595;DHT22;14238;49.496;8.154;2022-07-17T00:20:05;15.70;99.90
26595;DHT22;14238;49.496;8.154;2022-07-17T00:22:33;15.70;99.90
26595;DHT22;14238;49.496;8.154;2022-07-17T00:24:58;15.70;99.90
26595;DHT22;14238;49.496;8.154;2022-07-17T00:27:24;15.70;99.90
26595;DHT22;14238;49.496;8.154;2022-07-17T00:29:49;15.70;99.90
26595;DHT22;14238;49.496;8.154;2022-07-17T00:32:15;15.70;99.90
26595;DHT22;14238;49.496;8.154;2022-07-17T00:34:40;15.70;99.90
26595;DHT22;14238;49.496;8.154;2022-07-17T00:37:06;15.70;99.90
26595;DHT22;14238;49.496;8.154;2022-07-17T00:39:31;15.60;99.90
26595;DHT22;14238;49.496;8.154;2022-07-17T00:41:57;15.60;99.90
26595;DHT22;14238;49.496;8.154;2022-07-17T00:44:26;15.60;99.90
26595;DHT22;14238;49.496;8.154;2022-07-17T00:46:51;15.60;99.90
26595;DHT22;14238;49.496;8.154;2022-07-17T00:49:17;15.60;99.90
26595;DHT22;14238;49.496;8.154;2022-07-17T00:51:42;15.50;99.90
26595;DHT22;14238;49.496;8.154;2022-07-17T00:54:09;15.60;99.90
26595;DHT22;14238;49.496;8.154;2022-07-17T00:56:36;15.50;99.90
26595;DHT22;14238;49.496;8.154;2022-07-17T00:59:03;15.60;99.90
26595;DHT22;14238;49.496;8.154;2022-07-17T01:01:30;15.50;99.90
26595;DHT22;14238;49.496;8.154;2022-07-17T01:03:56;15.50;99.90
26595;DHT22;14238;49.496;8.154;2022-07-17T01:06:21;15.60;99.90
26595;DHT22;14238;49.496;8.154;2022-07-17T01:08:47;15.60;99.90
26595;DHT22;14238;49.496;8.154;2022-07-17T01:11:12;15.40;99.90
26595;DHT22;14238;49.496;8.154;2022-07-17T01:13:39;15.40;99.90
26595;DHT22;14238;49.496;8.154;2022-07-17T01:16:05;15.30;99.90
26595;DHT22;14238;49.496;8.154;2022-07-17T01:18:30;15.20;99.90
26595;DHT22;14238;49.496;8.154;2022-07-17T01:21:02;15.30;99.90
26595;DHT22;14238;49.496;8.154;2022-07-17T01:23:28;15.30;99.90
26595;DHT22;14238;49.496;8.154;2022-07-17T01:25:53;15.40;99.90
26595;DHT22;14238;49.496;8.154;2022-07-17T01:28:19;15.40;99.90
26595;DHT22;14238;49.496;8.154;2022-07-17T01:30:49;15.50;99.90
26595;DHT22;14238;49.496;8.154;2022-07-17T01:33:15;15.50;99.90
26595;DHT22;14238;49.496;8.154;2022-07-17T01:35:41;15.40;99.90
26595;DHT22;14238;49.496;8.154;2022-07-17T01:38:06;15.40;99.90
26595;DHT22;14238;49.496;8.154;2022-07-17T01:40:32;15.40;99.90
26595;DHT22;14238;49.496;8.154;2022-07-17T01:42:57;15.30;99.90
26595;DHT22;14238;49.496;8.154;2022-07-17T01:45:23;15.30;99.90
26595;DHT22;14238;49.496;8.154;2022-07-17T01:47:48;15.30;99.90
26595;DHT22;14238;49.496;8.154;2022-07-17T01:50:14;15.40;99.90
26595;DHT22;14238;49.496;8.154;2022-07-17T01:52:42;15.50;99.90
26595;DHT22;14238;49.496;8.154;2022-07-17T01:55:09;15.50;99.90
26595;DHT22;14238;49.496;8.154;2022-07-17T01:57:35;15.30;99.90
26595;DHT22;14238;49.496;8.154;2022-07-17T02:00:04;15.40;99.90
26595;DHT22;14238;49.496;8.154;2022-07-17T02:02:30;15.40;99.90
26595;DHT22;14238;49.496;8.154;2022-07-17T02:04:56;15.30;99.90
26595;DHT22;14238;49.496;8.154;2022-07-17T02:07:21;15.30;99.90
26595;DHT22;14238;49.496;8.154;2022-07-17T02:09:47;15.30;99.90
26595;DHT22;14238;49.496;8.154;2022-07-17T02:12:12;15.20;99.90
26595;DHT22;14238;49.496;8.154;2022-07-17T02:14:38;15.10;99.90
26595;DHT22;14238;49.496;8.154;2022-07-17T02:17:03;15.00;99.90
26595;DHT22;14238;49.496;8.154;2022-07-17T02:19:29;14.90;99.90
26595;DHT22;14238;49.496;8.154;2022-07-17T02:21:55;14.60;99.90
26595;DHT22;14238;49.496;8.154;2022-07-17T02:24:20;14.50;99.90
26595;DHT22;14238;49.496;8.154;2022-07-17T02:26:46;14.50;99.90
26595;DHT22;14238;49.496;8.154;2022-07-17T02:29:11;14.30;99.90
26595;DHT22;14238;49.496;8.154;2022-07-17T02:31:37;14.30;99.90
26595;DHT22;14238;49.496;8.154;2022-07-17T02:34:02;14.40;99.90
26595;DHT22;14238;49.496;8.154;2022-07-17T02:36:28;14.30;99.90
26595;DHT22;14238;49.496;8.154;2022-07-17T02:38:54;14.20;99.90
26595;DHT22;14238;49.496;8.154;2022-07-17T02:41:19;14.20;99.90
26595;DHT22;14238;49.496;8.154;2022-07-17T02:43:45;14.10;99.90
26595;DHT22;14238;49.496;8.154;2022-07-17T02:46:11;14.10;99.90
26595;DHT22;14238;49.496;8.154;2022-07-17T02:48:39;14.10;99.90
26595;DHT22;14238;49.496;8.154;2022-07-17T02:51:05;14.00;99.90
26595;DHT22;14238;49.496;8.154;2022-07-17T02:53:30;14.00;99.90
26595;DHT22;14238;49.496;8.154;2022-07-17T02:55:56;14.00;99.90
26595;DHT22;14238;49.496;8.154;2022-07-17T02:58:21;13.90;99.90
26595;DHT22;14238;49.496;8.154;2022-07-17T03:00:47;13.90;99.90
26595;DHT22;14238;49.496;8.154;2022-07-17T03:03:12;13.90;99.90
26595;DHT22;14238;49.496;8.154;2022-07-17T03:05:38;13.80;99.90
26595;DHT22;14238;49.496;8.154;2022-07-17T03:08:04;13.70;99.90
26595;DHT22;14238;49.496;8.154;2022-07-17T03:10:29;13.70;99.90
26595;DHT22;14238;49.496;8.154;2022-07-17T03:12:55;13.80;99.90
26595;DHT22;14238;49.496;8.154;2022-07-17T03:15:20;13.90;99.90
26595;DHT22;14238;49.496;8.154;2022-07-17T03:17:47;13.90;99.90
26595;DHT22;14238;49.496;8.154;2022-07-17T03:20:12;13.90;99.90
26595;DHT22;14238;49.496;8.154;2022-07-17T03:22:38;14.00;99.90
26595;DHT22;14238;49.496;8.154;2022-07-17T03:25:04;14.10;99.90
26595;DHT22;14238;49.496;8.154;2022-07-17T03:27:30;14.10;99.90
26595;DHT22;14238;49.496;8.154;2022-07-17T03:29:55;14.10;99.90
26595;DHT22;14238;49.496;8.154;2022-07-17T03:32:21;14.10;99.90
26595;DHT22;14238;49.496;8.154;2022-07-17T03:34:47;14.20;99.90
26595;DHT22;14238;49.496;8.154;2022-07-17T03:37:13;14.20;99.90
26595;DHT22;14238;49.496;8.154;2022-07-17T03:39:38;14.10;99.90
26595;DHT22;14238;49.496;8.154;2022-07-17T03:42:04;14.20;99.90
26595;DHT22;14238;49.496;8.154;2022-07-17T03:44:29;14.00;99.90
26595;DHT22;14238;49.496;8.154;2022-07-17T03:46:55;13.90;99.90
26595;DHT22;14238;49.496;8.154;2022-07-17T03:49:21;14.00;99.90
26595;DHT22;14238;49.496;8.154;2022-07-17T03:51:46;14.00;99.90
26595;DHT22;14238;49.496;8.154;2022-07-17T03:54:12;14.00;99.90
26595;DHT22;14238;49.496;8.154;2022-07-17T03:56:37;14.00;99.90
26595;DHT22;14238;49.496;8.154;2022-07-17T03:59:03;13.90;99.90
26595;DHT22;14238;49.496;8.154;2022-07-17T04:01:29;13.70;99.90
26595;DHT22;14238;49.496;8.154;2022-07-17T04:03:54;13.70;99.90
26595;DHT22;14238;49.496;8.154;2022-07-17T04:06:20;13.80;99.90
26595;DHT22;14238;49.496;8.154;2022-07-17T04:08:45;13.70;99.90
26595;DHT22;14238;49.496;8.154;2022-07-17T04:11:11;13.70;99.90
26595;DHT22;14238;49.496;8.154;2022-07-17T04:13:37;13.60;99.90
26595;DHT22;14238;49.496;8.154;2022-07-17T04:16:02;13.70;99.90
26595;DHT22;14238;49.496;8.154;2022-07-17T04:18:31;13.80;99.90
26595;DHT22;14238;49.496;8.154;2022-07-17T04:20:59;13.80;99.90
26595;DHT22;14238;49.496;8.154;2022-07-17T04:23:25;13.60;99.90
26595;DHT22;14238;49.496;8.154;2022-07-17T04:25:52;13.50;99.90
26595;DHT22;14238;49.496;8.154;2022-07-17T04:28:36;13.60;99.90
26595;DHT22;14238;49.496;8.154;2022-07-17T04:31:02;13.70;99.90
26595;DHT22;14238;49.496;8.154;2022-07-17T04:33:28;13.80;99.90
26595;DHT22;14238;49.496;8.154;2022-07-17T04:35:53;13.80;99.90
26595;DHT22;14238;49.496;8.154;2022-07-17T04:38:19;13.90;99.90
26595;DHT22;14238;49.496;8.154;2022-07-17T04:40:45;13.90;99.90
26595;DHT22;14238;49.496;8.154;2022-07-17T04:43:12;14.00;99.90
26595;DHT22;14238;49.496;8.154;2022-07-17T04:45:38;14.10;99.90
26595;DHT22;14238;49.496;8.154;2022-07-17T04:48:03;14.20;99.90
26595;DHT22;14238;49.496;8.154;2022-07-17T04:50:29;14.30;99.90
26595;DHT22;14238;49.496;8.154;2022-07-17T04:52:54;14.40;99.90
26595;DHT22;14238;49.496;8.154;2022-07-17T04:55:20;14.60;99.90
26595;DHT22;14238;49.496;8.154;2022-07-17T04:57:45;14.70;99.90
26595;DHT22;14238;49.496;8.154;2022-07-17T05:00:12;14.90;99.90
26595;DHT22;14238;49.496;8.154;2022-07-17T05:02:38;15.10;99.90
26595;DHT22;14238;49.496;8.154;2022-07-17T05:05:04;15.20;99.90
26595;DHT22;14238;49.496;8.154;2022-07-17T05:07:30;15.30;99.90
26595;DHT22;14238;49.496;8.154;2022-07-17T05:09:56;15.50;99.90
26595;DHT22;14238;49.496;8.154;2022-07-17T05:12:21;15.60;99.90
26595;DHT22;14238;49.496;8.154;2022-07-17T05:14:47;15.70;99.90
26595;DHT22;14238;49.496;8.154;2022-07-17T05:17:13;15.70;99.90
26595;DHT22;14238;49.496;8.154;2022-07-17T05:19:38;15.80;99.90
26595;DHT22;14238;49.496;8.154;2022-07-17T05:22:04;15.90;99.90
26595;DHT22;14238;49.496;8.154;2022-07-17T05:24:30;15.90;99.90
26595;DHT22;14238;49.496;8.154;2022-07-17T05:26:56;15.90;99.90
26595;DHT22;14238;49.496;8.154;2022-07-17T05:29:21;16.10;99.90
26595;DHT22;14238;49.496;8.154;2022-07-17T05:31:47;16.10;99.90
26595;DHT22;14238;49.496;8.154;2022-07-17T05:34:12;16.10;99.90
26595;DHT22;14238;49.496;8.154;2022-07-17T05:36:38;16.20;99.90
26595;DHT22;14238;49.496;8.154;2022-07-17T05:39:04;16.20;99.90
26595;DHT22;14238;49.496;8.154;2022-07-17T05:41:29;16.30;99.90
26595;DHT22;14238;49.496;8.154;2022-07-17T05:43:55;16.40;99.90
26595;DHT22;14238;49.496;8.154;2022-07-17T05:46:21;16.40;99.90
26595;DHT22;14238;49.496;8.154;2022-07-17T05:48:46;16.50;99.90
26595;DHT22;14238;49.496;8.154;2022-07-17T05:51:12;16.60;99.90
26595;DHT22;14238;49.496;8.154;2022-07-17T05:53:37;16.60;99.90
26595;DHT22;14238;49.496;8.154;2022-07-17T05:56:03;16.70;99.90
26595;DHT22;14238;49.496;8.154;2022-07-17T05:58:28;16.70;99.90
26595;DHT22;14238;49.496;8.154;2022-07-17T06:00:54;16.80;99.90
26595;DHT22;14238;49.496;8.154;2022-07-17T06:03:19;17.00;99.90
26595;DHT22;14238;49.496;8.154;2022-07-17T06:05:45;16.90;99.90
26595;DHT22;14238;49.496;8.154;2022-07-17T06:08:11;17.00;99.90
26595;DHT22;14238;49.496;8.154;2022-07-17T06:10:36;17.00;99.90
26595;DHT22;14238;49.496;8.154;2022-07-17T06:13:04;17.10;99.90
26595;DHT22;14238;49.496;8.154;2022-07-17T06:15:29;17.10;99.90
26595;DHT22;14238;49.496;8.154;2022-07-17T06:17:55;17.20;99.90
26595;DHT22;14238;49.496;8.154;2022-07-17T06:20:20;17.30;99.90
26595;DHT22;14238;49.496;8.154;2022-07-17T06:22:46;17.40;99.90
26595;DHT22;14238;49.496;8.154;2022-07-17T06:25:12;17.30;99.90
26595;DHT22;14238;49.496;8.154;2022-07-17T06:27:39;17.30;99.90
26595;DHT22;14238;49.496;8.154;2022-07-17T06:30:06;17.40;99.90
26595;DHT22;14238;49.496;8.154;2022-07-17T06:32:31;17.30;99.90
26595;DHT22;14238;49.496;8.154;2022-07-17T06:34:57;17.50;99.90
26595;DHT22;14238;49.496;8.154;2022-07-17T06:37:22;17.60;99.90
26595;DHT22;14238;49.496;8.154;2022-07-17T06:39:48;17.60;99.90
26595;DHT22;14238;49.496;8.154;2022-07-17T06:42:14;17.70;99.90
26595;DHT22;14238;49.496;8.154;2022-07-17T06:44:39;17.70;99.90
26595;DHT22;14238;49.496;8.154;2022-07-17T06:47:05;17.80;99.90
26595;DHT22;14238;49.496;8.154;2022-07-17T06:49:30;17.90;99.90
26595;DHT22;14238;49.496;8.154;2022-07-17T06:51:56;17.90;99.90
26595;DHT22;14238;49.496;8.154;2022-07-17T06:54:21;18.00;99.90
26595;DHT22;14238;49.496;8.154;2022-07-17T06:56:54;18.10;99.90
26595;DHT22;14238;49.496;8.154;2022-07-17T06:59:20;18.10;99.90
26595;DHT22;14238;49.496;8.154;2022-07-17T07:01:46;18.20;99.90
26595;DHT22;14238;49.496;8.154;2022-07-17T07:04:12;18.20;99.90
26595;DHT22;14238;49.496;8.154;2022-07-17T07:06:37;18.20;99.60
26595;DHT22;14238;49.496;8.154;2022-07-17T07:09:03;18.30;99.90
26595;DHT22;14238;49.496;8.154;2022-07-17T07:11:29;18.40;98.90
26595;DHT22;14238;49.496;8.154;2022-07-17T07:13:54;18.50;99.30
26595;DHT22;14238;49.496;8.154;2022-07-17T07:16:20;18.60;99.70
26595;DHT22;14238;49.496;8.154;2022-07-17T07:18:46;18.70;98.40
26595;DHT22;14238;49.496;8.154;2022-07-17T07:21:12;18.80;99.20
26595;DHT22;14238;49.496;8.154;2022-07-17T07:23:37;18.90;98.10
26595;DHT22;14238;49.496;8.154;2022-07-17T07:26:03;18.90;97.00
26595;DHT22;14238;49.496;8.154;2022-07-17T07:28:28;19.00;97.40
26595;DHT22;14238;49.496;8.154;2022-07-17T07:30:54;19.10;97.20
26595;DHT22;14238;49.496;8.154;2022-07-17T07:33:19;19.10;98.10
26595;DHT22;14238;49.496;8.154;2022-07-17T07:35:45;19.30;97.90
26595;DHT22;14238;49.496;8.154;2022-07-17T07:38:11;19.40;96.70
26595;DHT22;14238;49.496;8.154;2022-07-17T07:40:36;19.40;95.90
26595;DHT22;14238;49.496;8.154;2022-07-17T07:43:02;19.40;96.40
26595;DHT22;14238;49.496;8.154;2022-07-17T07:45:28;19.50;95.70
26595;DHT22;14238;49.496;8.154;2022-07-17T07:47:54;19.50;96.40
26595;DHT22;14238;49.496;8.154;2022-07-17T07:50:23;19.60;96.00
26595;DHT22;14238;49.496;8.154;2022-07-17T07:52:49;19.60;96.50
26595;DHT22;14238;49.496;8.154;2022-07-17T07:55:15;19.90;96.40
26595;DHT22;14238;49.496;8.154;2022-07-17T07:57:41;20.00;95.50
26595;DHT22;14238;49.496;8.154;2022-07-17T08:00:08;20.10;94.70
26595;DHT22;14238;49.496;8.154;2022-07-17T08:02:34;20.20;96.40
26595;DHT22;14238;49.496;8.154;2022-07-17T08:05:00;20.30;95.80
26595;DHT22;14238;49.496;8.154;2022-07-17T08:07:26;20.30;96.00
26595;DHT22;14238;49.496;8.154;2022-07-17T08:09:52;20.30;95.30
26595;DHT22;14238;49.496;8.154;2022-07-17T08:12:18;20.50;96.90
26595;DHT22;14238;49.496;8.154;2022-07-17T08:14:44;20.50;95.20
26595;DHT22;14238;49.496;8.154;2022-07-17T08:17:09;20.70;95.70
26595;DHT22;14238;49.496;8.154;2022-07-17T08:19:35;20.80;95.00
26595;DHT22;14238;49.496;8.154;2022-07-17T08:22:00;21.00;94.60
26595;DHT22;14238;49.496;8.154;2022-07-17T08:24:26;21.00;93.90
26595;DHT22;14238;49.496;8.154;2022-07-17T08:26:51;21.10;94.30
26595;DHT22;14238;49.496;8.154;2022-07-17T08:29:17;21.30;94.50
26595;DHT22;14238;49.496;8.154;2022-07-17T08:31:43;21.40;93.70
26595;DHT22;14238;49.496;8.154;2022-07-17T08:34:08;21.40;93.50
26595;DHT22;14238;49.496;8.154;2022-07-17T08:36:34;21.70;94.00
26595;DHT22;14238;49.496;8.154;2022-07-17T08:39:00;21.70;92.70
26595;DHT22;14238;49.496;8.154;2022-07-17T08:41:26;21.80;93.00
26595;DHT22;14238;49.496;8.154;2022-07-17T08:43:52;22.10;93.70
26595;DHT22;14238;49.496;8.154;2022-07-17T08:46:25;22.00;91.90
26595;DHT22;14238;49.496;8.154;2022-07-17T08:48:56;22.10;91.10
26595;DHT22;14238;49.496;8.154;2022-07-17T08:51:26;22.50;91.80
26595;DHT22;14238;49.496;8.154;2022-07-17T08:53:53;22.40;90.70
26595;DHT22;14238;49.496;8.154;2022-07-17T08:56:19;22.50;90.80
26595;DHT22;14238;49.496;8.154;2022-07-17T08:58:45;22.60;91.00
26595;DHT22;14238;49.496;8.154;2022-07-17T09:01:10;23.00;91.70
26595;DHT22;14238;49.496;8.154;2022-07-17T09:03:36;22.90;90.70
26595;DHT22;14238;49.496;8.154;2022-07-17T09:06:02;23.20;91.20
26595;DHT22;14238;49.496;8.154;2022-07-17T09:08:29;23.40;90.80
26595;DHT22;14238;49.496;8.154;2022-07-17T09:10:58;23.80;90.30
26595;DHT22;14238;49.496;8.154;2022-07-17T09:13:25;23.80;88.30
26595;DHT22;14238;49.496;8.154;2022-07-17T09:15:55;23.60;86.80
26595;DHT22;14238;49.496;8.154;2022-07-17T09:18:21;23.70;88.30
26595;DHT22;14238;49.496;8.154;2022-07-17T09:20:49;24.00;90.10
26595;DHT22;14238;49.496;8.154;2022-07-17T09:23:17;24.10;85.50
26595;DHT22;14238;49.496;8.154;2022-07-17T09:25:45;24.70;85.00
26595;DHT22;14238;49.496;8.154;2022-07-17T09:28:13;24.70;87.40
26595;DHT22;14238;49.496;8.154;2022-07-17T09:30:41;24.90;80.00
26595;DHT22;14238;49.496;8.154;2022-07-17T09:33:15;25.00;80.70
26595;DHT22;14238;49.496;8.154;2022-07-17T09:35:49;25.20;81.40
26595;DHT22;14238;49.496;8.154;2022-07-17T09:38:30;24.90;82.10
26595;DHT22;14238;49.496;8.154;2022-07-17T09:41:17;24.60;78.90
26595;DHT22;14238;49.496;8.154;2022-07-17T09:43:52;24.80;80.00
26595;DHT22;14238;49.496;8.154;2022-07-17T09:46:20;24.70;80.30
26595;DHT22;14238;49.496;8.154;2022-07-17T09:48:51;24.80;79.50
26595;DHT22;14238;49.496;8.154;2022-07-17T09:51:26;25.00;80.90
26595;DHT22;14238;49.496;8.154;2022-07-17T09:53:56;25.10;81.50
26595;DHT22;14238;49.496;8.154;2022-07-17T09:56:24;25.60;81.80
26595;DHT22;14238;49.496;8.154;2022-07-17T09:58:53;25.60;75.30
26595;DHT22;14238;49.496;8.154;2022-07-17T10:01:20;25.20;78.50
26595;DHT22;14238;49.496;8.154;2022-07-17T10:03:46;25.10;78.20
26595;DHT22;14238;49.496;8.154;2022-07-17T10:06:15;25.00;77.10
26595;DHT22;14238;49.496;8.154;2022-07-17T10:08:40;25.20;79.00
26595;DHT22;14238;49.496;8.154;2022-07-17T10:11:08;25.40;78.30
26595;DHT22;14238;49.496;8.154;2022-07-17T10:13:39;25.10;77.50
26595;DHT22;14238;49.496;8.154;2022-07-17T10:16:06;25.20;77.80
26595;DHT22;14238;49.496;8.154;2022-07-17T10:18:36;25.30;73.40
26595;DHT22;14238;49.496;8.154;2022-07-17T10:21:16;25.50;71.30
26595;DHT22;14238;49.496;8.154;2022-07-17T10:23:47;25.90;73.60
26595;DHT22;14238;49.496;8.154;2022-07-17T10:26:13;26.10;72.90
26595;DHT22;14238;49.496;8.154;2022-07-17T10:28:44;26.00;70.30
26595;DHT22;14238;49.496;8.154;2022-07-17T10:31:23;25.80;70.20
26595;DHT22;14238;49.496;8.154;2022-07-17T10:34:03;26.20;75.30
26595;DHT22;14238;49.496;8.154;2022-07-17T10:36:37;26.10;73.50
26595;DHT22;14238;49.496;8.154;2022-07-17T10:39:17;26.00;71.00
26595;DHT22;14238;49.496;8.154;2022-07-17T10:41:54;26.10;70.00
26595;DHT22;14238;49.496;8.154;2022-07-17T10:44:31;26.40;69.80
26595;DHT22;14238;49.496;8.154;2022-07-17T10:46:59;25.80;67.80
26595;DHT22;14238;49.496;8.154;2022-07-17T10:49:26;25.90;70.50
26595;DHT22;14238;49.496;8.154;2022-07-17T10:51:52;26.40;72.20
26595;DHT22;14238;49.496;8.154;2022-07-17T10:54:19;26.50;68.10
26595;DHT22;14238;49.496;8.154;2022-07-17T10:56:45;26.70;65.70
26595;DHT22;14238;49.496;8.154;2022-07-17T10:59:11;26.60;65.50
26595;DHT22;14238;49.496;8.154;2022-07-17T11:01:37;26.90;66.40
26595;DHT22;14238;49.496;8.154;2022-07-17T11:04:03;26.90;65.50
26595;DHT22;14238;49.496;8.154;2022-07-17T11:06:35;27.10;62.20
26595;DHT22;14238;49.496;8.154;2022-07-17T11:09:08;26.80;60.20
26595;DHT22;14238;49.496;8.154;2022-07-17T11:11:41;27.30;64.40
26595;DHT22;14238;49.496;8.154;2022-07-17T11:14:18;27.20;63.00
26595;DHT22;14238;49.496;8.154;2022-07-17T11:16:47;27.00;59.90
26595;DHT22;14238;49.496;8.154;2022-07-17T11:19:30;27.10;63.20
26595;DHT22;14238;49.496;8.154;2022-07-17T11:21:57;27.70;60.90
26595;DHT22;14238;49.496;8.154;2022-07-17T11:24:23;27.50;59.30
26595;DHT22;14238;49.496;8.154;2022-07-17T11:26:50;27.50;60.60
26595;DHT22;14238;49.496;8.154;2022-07-17T11:29:16;27.50;60.40
26595;DHT22;14238;49.496;8.154;2022-07-17T11:31:42;27.90;61.20
26595;DHT22;14238;49.496;8.154;2022-07-17T11:34:10;27.90;60.00
26595;DHT22;14238;49.496;8.154;2022-07-17T11:36:38;28.00;63.00
26595;DHT22;14238;49.496;8.154;2022-07-17T11:39:07;28.30;60.80
26595;DHT22;14238;49.496;8.154;2022-07-17T11:41:43;28.30;59.90
26595;DHT22;14238;49.496;8.154;2022-07-17T11:44:11;28.40;57.00
26595;DHT22;14238;49.496;8.154;2022-07-17T11:46:39;27.90;55.10
26595;DHT22;14238;49.496;8.154;2022-07-17T11:49:05;28.40;58.20
26595;DHT22;14238;49.496;8.154;2022-07-17T11:51:43;28.50;58.20
26595;DHT22;14238;49.496;8.154;2022-07-17T11:54:14;28.70;56.30
26595;DHT22;14238;49.496;8.154;2022-07-17T11:56:41;28.40;56.40
26595;DHT22;14238;49.496;8.154;2022-07-17T11:59:08;28.30;53.50
26595;DHT22;14238;49.496;8.154;2022-07-17T12:01:39;28.30;55.80
26595;DHT22;14238;49.496;8.154;2022-07-17T12:04:08;28.50;56.70
26595;DHT22;14238;49.496;8.154;2022-07-17T12:06:34;28.40;57.40
26595;DHT22;14238;49.496;8.154;2022-07-17T12:08:59;28.70;54.30
26595;DHT22;14238;49.496;8.154;2022-07-17T12:11:25;29.20;56.10
26595;DHT22;14238;49.496;8.154;2022-07-17T12:13:50;29.10;59.50
26595;DHT22;14238;49.496;8.154;2022-07-17T12:16:30;28.50;55.40
26595;DHT22;14238;49.496;8.154;2022-07-17T12:19:08;28.20;55.80
26595;DHT22;14238;49.496;8.154;2022-07-17T12:21:51;28.20;56.10
26595;DHT22;14238;49.496;8.154;2022-07-17T12:27:15;28.00;55.80
26595;DHT22;14238;49.496;8.154;2022-07-17T12:29:42;28.50;56.40
26595;DHT22;14238;49.496;8.154;2022-07-17T12:32:15;28.80;54.70
26595;DHT22;14238;49.496;8.154;2022-07-17T12:34:46;28.90;55.50
26595;DHT22;14238;49.496;8.154;2022-07-17T12:37:20;28.90;54.60
26595;DHT22;14238;49.496;8.154;2022-07-17T12:39:47;28.80;52.60
26595;DHT22;14238;49.496;8.154;2022-07-17T12:42:14;29.20;53.40
26595;DHT22;14238;49.496;8.154;2022-07-17T12:44:40;29.30;54.80
26595;DHT22;14238;49.496;8.154;2022-07-17T12:47:07;29.30;54.30
26595;DHT22;14238;49.496;8.154;2022-07-17T12:49:33;29.30;54.10
26595;DHT22;14238;49.496;8.154;2022-07-17T12:51:58;29.40;52.70
26595;DHT22;14238;49.496;8.154;2022-07-17T12:54:24;29.30;52.70
26595;DHT22;14238;49.496;8.154;2022-07-17T12:56:49;28.80;51.30
26595;DHT22;14238;49.496;8.154;2022-07-17T12:59:15;29.30;52.90
26595;DHT22;14238;49.496;8.154;2022-07-17T13:01:40;29.60;51.70
26595;DHT22;14238;49.496;8.154;2022-07-17T13:04:06;29.40;50.00
26595;DHT22;14238;49.496;8.154;2022-07-17T13:06:32;29.20;48.90
26595;DHT22;14238;49.496;8.154;2022-07-17T13:08:58;29.50;52.20
26595;DHT22;14238;49.496;8.154;2022-07-17T13:11:24;29.50;48.40
26595;DHT22;14238;49.496;8.154;2022-07-17T13:13:50;29.70;50.50
26595;DHT22;14238;49.496;8.154;2022-07-17T13:16:16;29.70;49.30
26595;DHT22;14238;49.496;8.154;2022-07-17T13:18:41;30.00;47.60
26595;DHT22;14238;49.496;8.154;2022-07-17T13:21:07;29.80;47.60
26595;DHT22;14238;49.496;8.154;2022-07-17T13:23:34;29.90;49.30
26595;DHT22;14238;49.496;8.154;2022-07-17T13:26:00;30.10;48.10
26595;DHT22;14238;49.496;8.154;2022-07-17T13:28:26;30.40;47.20
26595;DHT22;14238;49.496;8.154;2022-07-17T13:30:52;30.20;46.40
26595;DHT22;14238;49.496;8.154;2022-07-17T13:33:17;30.20;45.20
26595;DHT22;14238;49.496;8.154;2022-07-17T13:35:43;30.10;43.80
26595;DHT22;14238;49.496;8.154;2022-07-17T13:38:09;30.20;46.90
26595;DHT22;14238;49.496;8.154;2022-07-17T13:40:35;30.10;45.30
26595;DHT22;14238;49.496;8.154;2022-07-17T13:43:02;30.50;46.70
26595;DHT22;14238;49.496;8.154;2022-07-17T13:45:29;30.20;45.80
26595;DHT22;14238;49.496;8.154;2022-07-17T13:47:55;30.20;49.50
26595;DHT22;14238;49.496;8.154;2022-07-17T13:50:22;30.10;45.60
26595;DHT22;14238;49.496;8.154;2022-07-17T13:52:47;30.30;47.20
26595;DHT22;14238;49.496;8.154;2022-07-17T13:55:13;30.50;43.60
26595;DHT22;14238;49.496;8.154;2022-07-17T13:57:40;30.80;45.00
26595;DHT22;14238;49.496;8.154;2022-07-17T14:00:06;30.80;45.60
26595;DHT22;14238;49.496;8.154;2022-07-17T14:02:34;30.70;47.70
26595;DHT22;14238;49.496;8.154;2022-07-17T14:04:59;31.20;48.20
26595;DHT22;14238;49.496;8.154;2022-07-17T14:07:25;30.80;42.70
26595;DHT22;14238;49.496;8.154;2022-07-17T14:09:50;30.60;44.70
26595;DHT22;14238;49.496;8.154;2022-07-17T14:12:16;30.40;44.40
26595;DHT22;14238;49.496;8.154;2022-07-17T14:14:42;30.40;43.80
26595;DHT22;14238;49.496;8.154;2022-07-17T14:17:07;30.60;43.50
26595;DHT22;14238;49.496;8.154;2022-07-17T14:19:33;30.20;40.80
26595;DHT22;14238;49.496;8.154;2022-07-17T14:22:00;29.90;39.60
26595;DHT22;14238;49.496;8.154;2022-07-17T14:24:26;29.90;40.10
26595;DHT22;14238;49.496;8.154;2022-07-17T14:26:51;30.10;39.70
26595;DHT22;14238;49.496;8.154;2022-07-17T14:29:17;30.20;41.10
26595;DHT22;14238;49.496;8.154;2022-07-17T14:31:42;30.00;43.00
26595;DHT22;14238;49.496;8.154;2022-07-17T14:34:08;29.70;39.40
26595;DHT22;14238;49.496;8.154;2022-07-17T14:36:34;29.90;41.60
26595;DHT22;14238;49.496;8.154;2022-07-17T14:38:59;29.90;39.20
26595;DHT22;14238;49.496;8.154;2022-07-17T14:41:25;30.10;41.10
26595;DHT22;14238;49.496;8.154;2022-07-17T14:43:52;30.00;39.50
26595;DHT22;14238;49.496;8.154;2022-07-17T14:46:18;30.10;43.20
26595;DHT22;14238;49.496;8.154;2022-07-17T14:48:43;30.20;42.50
26595;DHT22;14238;49.496;8.154;2022-07-17T14:51:09;30.50;41.30
26595;DHT22;14238;49.496;8.154;2022-07-17T14:53:34;30.70;41.40
26595;DHT22;14238;49.496;8.154;2022-07-17T14:56:00;30.60;40.00
26595;DHT22;14238;49.496;8.154;2022-07-17T14:58:26;30.60;39.30
26595;DHT22;14238;49.496;8.154;2022-07-17T15:00:51;30.50;35.70
26595;DHT22;14238;49.496;8.154;2022-07-17T15:03:17;30.40;35.80
26595;DHT22;14238;49.496;8.154;2022-07-17T15:05:42;30.60;34.00
26595;DHT22;14238;49.496;8.154;2022-07-17T15:08:08;30.80;37.50
26595;DHT22;14238;49.496;8.154;2022-07-17T15:10:34;30.70;35.40
26595;DHT22;14238;49.496;8.154;2022-07-17T15:13:00;30.60;36.20
26595;DHT22;14238;49.496;8.154;2022-07-17T15:15:26;30.90;37.10
26595;DHT22;14238;49.496;8.154;2022-07-17T15:17:51;30.30;33.90
26595;DHT22;14238;49.496;8.154;2022-07-17T15:20:17;30.50;33.40
26595;DHT22;14238;49.496;8.154;2022-07-17T15:22:42;30.70;34.80
26595;DHT22;14238;49.496;8.154;2022-07-17T15:25:08;30.60;33.20
26595;DHT22;14238;49.496;8.154;2022-07-17T15:27:34;30.40;35.30
26595;DHT22;14238;49.496;8.154;2022-07-17T15:30:00;30.40;38.40